createdAt,value
2022-08-10T00:01:16.950Z,88.64
2022-08-10T00:06:21.127Z,90.38
2022-08-10T00:11:25.125Z,92.05
2022-08-10T00:16:30.078Z,93.78
2022-08-10T00:21:33.648Z,91.65
2022-08-10T00:28:01.264Z,92.19
2022-08-10T00:32:02.827Z,93.93
2022-08-10T00:37:06.404Z,94.90
2022-08-10T00:42:12.312Z,94.22
2022-08-10T00:47:36.054Z,95.09
2022-08-10T00:52:41.519Z,94.38
2022-08-10T00:57:45.234Z,94.49
2022-08-10T01:03:00.129Z,97.66
2022-08-10T01:08:22.772Z,96.11
2022-08-10T01:13:33.214Z,99.37
2022-08-10T01:18:48.916Z,98.37
2022-08-10T01:24:09.690Z,98.91
2022-08-10T01:29:39.552Z,99.95
2022-08-10T01:34:50.619Z,100.00
2022-08-10T01:39:58.723Z,100.00
2022-08-10T01:45:06.289Z,100.00
2022-08-10T01:50:19.414Z,100.00
2022-08-10T01:55:25.714Z,100.00
2022-08-10T02:00:32.287Z,100.00
2022-08-10T02:05:38.342Z,100.00
2022-08-10T02:10:44.735Z,100.00
2022-08-10T02:16:01.863Z,100.00
2022-08-10T02:21:08.498Z,100.00
2022-08-10T02:26:14.186Z,100.00
2022-08-10T02:31:23.903Z,100.00
2022-08-10T02:36:30.679Z,100.00
2022-08-10T02:45:15.497Z,100.00
2022-08-10T02:47:11.393Z,100.00
2022-08-10T02:52:22.021Z,100.00
2022-08-10T02:57:29.705Z,100.00
2022-08-10T03:02:39.265Z,100.00
2022-08-10T03:07:49.626Z,100.00
2022-08-10T03:12:57.491Z,100.00
2022-08-10T03:18:04.284Z,100.00
2022-08-10T03:23:12.368Z,100.00
2022-08-10T03:28:18.777Z,100.00
2022-08-10T03:33:28.850Z,100.00
2022-08-10T03:38:32.606Z,100.00
2022-08-10T03:43:36.841Z,100.00
2022-08-10T03:48:49.329Z,100.00
2022-08-10T03:54:03.498Z,100.00
2022-08-10T03:59:12.446Z,100.00
2022-08-10T04:04:23.657Z,100.00
2022-08-10T04:09:42.813Z,100.00
2022-08-10T04:14:53.893Z,100.00
2022-08-10T04:20:00.165Z,100.00
2022-08-10T04:25:06.131Z,100.00
2022-08-10T04:30:11.051Z,100.00
2022-08-10T04:35:19.261Z,100.00
2022-08-10T04:40:28.729Z,100.00
2022-08-10T04:45:50.037Z,100.00
2022-08-10T04:50:56.942Z,100.00
2022-08-10T04:56:03.354Z,100.00
2022-08-10T05:01:06.884Z,100.00
2022-08-10T05:06:12.285Z,100.00
2022-08-10T05:11:23.782Z,100.00
2022-08-10T05:16:31.811Z,100.00
2022-08-10T05:21:56.968Z,100.00
2022-08-10T05:27:09.929Z,100.00
2022-08-10T05:32:14.973Z,100.00
2022-08-10T05:38:12.225Z,100.00
2022-08-10T05:42:45.135Z,100.00
2022-08-10T05:48:55.139Z,100.00
2022-08-10T05:54:01.258Z,100.00
2022-08-10T05:58:38.506Z,97.40
2022-08-10T06:03:49.512Z,95.93
2022-08-10T06:08:56.305Z,88.13
2022-08-10T06:14:18.751Z,79.12
2022-08-10T06:19:23.923Z,70.23
2022-08-10T06:24:30.908Z,70.74
2022-08-10T06:29:37.615Z,64.00
2022-08-10T06:34:46.341Z,58.51
2022-08-10T06:39:51.958Z,55.28
2022-08-10T06:45:00.551Z,52.95
2022-08-10T06:50:11.760Z,50.21
2022-08-10T06:55:18.673Z,49.07
2022-08-10T07:00:24.535Z,45.55
2022-08-10T07:05:41.318Z,43.43
2022-08-10T07:10:50.143Z,43.83
2022-08-10T07:15:59.165Z,41.99
2022-08-10T07:21:06.159Z,41.90
2022-08-10T07:26:13.634Z,43.31
2022-08-10T07:31:55.528Z,42.84
2022-08-10T07:36:48.029Z,43.26
2022-08-10T07:41:54.122Z,43.12
2022-08-10T07:47:01.554Z,43.58
2022-08-10T07:52:09.031Z,43.31
2022-08-10T07:57:30.683Z,42.79
2022-08-10T08:02:41.007Z,42.50
2022-08-10T08:07:47.046Z,41.82
2022-08-10T08:12:53.257Z,42.37
2022-08-10T08:18:00.572Z,41.32
2022-08-10T08:24:10.787Z,42.82
2022-08-10T08:28:35.296Z,42.63
2022-08-10T08:33:41.938Z,40.92
2022-08-10T08:38:47.689Z,41.45
2022-08-10T08:44:05.732Z,41.38
2022-08-10T08:50:07.507Z,42.67
2022-08-10T08:55:04.537Z,42.67
2022-08-10T09:00:37.552Z,41.63
2022-08-10T09:06:00.200Z,41.73
2022-08-10T09:11:14.750Z,40.31
2022-08-10T09:16:26.102Z,41.60
2022-08-10T09:21:43.345Z,40.89
2022-08-10T09:27:09.378Z,39.41
2022-08-10T09:36:17.487Z,40.46
2022-08-10T09:38:02.027Z,39.74
2022-08-10T09:43:26.015Z,39.16
2022-08-10T09:48:40.456Z,40.04
2022-08-10T09:53:56.981Z,40.25
2022-08-10T09:59:26.641Z,38.87
2022-08-10T10:04:58.162Z,37.27
2022-08-10T10:10:05.983Z,36.85
2022-08-10T10:15:24.796Z,38.94
2022-08-10T10:20:38.828Z,36.82
2022-08-10T10:25:50.408Z,35.15
2022-08-10T10:31:16.891Z,36.19
2022-08-10T10:36:23.740Z,34.86
2022-08-10T10:41:56.210Z,35.54
2022-08-10T10:47:16.262Z,35.66
2022-08-10T10:52:40.812Z,34.96
2022-08-10T10:57:59.957Z,34.38
2022-08-10T11:03:19.224Z,34.56
2022-08-10T11:08:29.174Z,35.18
2022-08-10T11:14:24.454Z,33.00
2022-08-10T11:19:11.703Z,34.39
2022-08-10T11:24:48.457Z,35.90
2022-08-10T11:29:56.324Z,36.25
2022-08-10T11:35:11.437Z,35.46
2022-08-10T11:40:22.993Z,34.26
2022-08-10T11:45:35.275Z,34.60
2022-08-10T11:50:46.702Z,34.86
2022-08-10T11:55:56.889Z,34.41
2022-08-10T12:01:03.375Z,34.76
2022-08-10T12:06:13.523Z,35.06
2022-08-10T12:11:25.261Z,35.64
2022-08-10T12:16:33.021Z,34.77
2022-08-10T12:21:42.084Z,32.98
2022-08-10T12:26:54.930Z,34.21
2022-08-10T12:32:05.631Z,32.58
2022-08-10T12:37:21.073Z,33.59
2022-08-10T12:42:41.020Z,33.52
2022-08-10T12:47:54.054Z,34.64
2022-08-10T12:53:04.837Z,33.07
2022-08-10T12:58:57.509Z,33.13
2022-08-10T13:04:20.754Z,33.44
2022-08-10T13:09:09.779Z,33.12
2022-08-10T13:14:24.024Z,32.68
2022-08-10T13:19:39.058Z,31.65
2022-08-10T13:24:59.296Z,31.23
2022-08-10T13:30:10.207Z,30.91
2022-08-10T13:35:17.723Z,32.31
2022-08-10T13:40:22.419Z,31.44
2022-08-10T13:45:29.723Z,31.58
2022-08-10T13:50:37.403Z,33.19
2022-08-10T13:55:46.007Z,34.36
2022-08-10T14:01:01.744Z,34.09
2022-08-10T14:06:08.589Z,33.53
2022-08-10T14:11:15.545Z,31.90
2022-08-10T14:16:22.054Z,31.24
2022-08-10T14:21:26.335Z,31.29
2022-08-10T14:26:32.099Z,30.59
2022-08-10T14:32:01.002Z,31.34
2022-08-10T14:37:07.915Z,30.92
2022-08-10T14:42:26.833Z,31.53
2022-08-10T14:47:52.653Z,31.54
2022-08-10T14:53:02.114Z,31.23
2022-08-10T14:58:19.727Z,32.08
2022-08-10T15:03:58.426Z,30.13
2022-08-10T15:09:19.125Z,30.85
2022-08-10T15:14:41.441Z,31.02
2022-08-10T15:20:04.158Z,31.30
2022-08-10T15:25:18.142Z,30.99
2022-08-10T15:30:30.003Z,29.65
2022-08-10T15:35:54.966Z,30.11
2022-08-10T15:41:00.402Z,30.82
2022-08-10T15:46:14.974Z,31.85
2022-08-10T15:51:28.187Z,31.22
2022-08-10T15:56:43.429Z,31.28
2022-08-10T16:02:13.607Z,32.03
2022-08-10T16:07:23.611Z,32.05
2022-08-10T16:12:59.489Z,33.55
2022-08-10T16:18:09.898Z,31.71
2022-08-10T16:23:19.778Z,32.49
2022-08-10T16:28:30.564Z,32.47
2022-08-10T16:33:53.838Z,32.81
2022-08-10T16:39:00.770Z,32.10
2022-08-10T16:44:07.190Z,32.37
2022-08-10T16:49:12.302Z,32.70
2022-08-10T16:54:26.378Z,33.31
2022-08-10T16:59:34.977Z,32.98
2022-08-10T17:04:44.078Z,33.30
2022-08-10T17:09:52.320Z,33.50
2022-08-10T17:15:09.811Z,33.98
2022-08-10T17:20:30.097Z,34.25
2022-08-10T17:25:48.944Z,34.69
2022-08-10T17:30:58.206Z,34.82
2022-08-10T17:36:05.111Z,35.31
2022-08-10T17:41:13.700Z,36.59
2022-08-10T17:46:18.935Z,37.78
2022-08-10T17:51:28.731Z,37.92
2022-08-10T17:56:38.004Z,37.07
2022-08-10T18:01:58.609Z,37.22
2022-08-10T18:07:06.950Z,37.68
2022-08-10T18:12:18.010Z,37.94
2022-08-10T18:17:25.538Z,38.19
2022-08-10T18:22:30.678Z,38.70
2022-08-10T18:28:01.395Z,39.29
2022-08-10T18:33:10.658Z,40.49
2022-08-10T18:38:16.734Z,41.27
2022-08-10T18:44:06.374Z,41.74
2022-08-10T18:48:56.112Z,43.07
2022-08-10T18:54:06.461Z,43.88
2022-08-10T18:59:38.185Z,47.04
2022-08-10T19:04:57.324Z,47.93
2022-08-10T19:10:11.108Z,49.34
2022-08-10T19:15:28.565Z,50.98
2022-08-10T19:20:37.497Z,51.07
2022-08-10T19:26:40.981Z,52.47
2022-08-10T19:31:16.390Z,53.63
2022-08-10T19:36:31.734Z,55.33
2022-08-10T19:41:44.491Z,54.62
2022-08-10T19:46:58.579Z,58.30
2022-08-10T19:52:11.433Z,57.67
2022-08-10T19:57:26.633Z,61.73
2022-08-10T20:02:39.087Z,63.95
2022-08-10T20:07:52.116Z,63.01
2022-08-10T20:13:08.967Z,61.77
2022-08-10T20:18:23.485Z,61.94
2022-08-10T20:23:34.150Z,65.82
2022-08-10T20:28:43.522Z,63.64
2022-08-10T20:34:00.707Z,65.05
2022-08-10T20:39:14.747Z,64.34
2022-08-10T20:44:34.297Z,64.74
2022-08-10T20:49:46.067Z,65.94
2022-08-10T20:54:52.356Z,64.71
2022-08-10T21:00:07.318Z,66.04
2022-08-10T21:05:20.826Z,69.91
2022-08-10T21:10:38.357Z,69.10
2022-08-10T21:15:55.646Z,71.34
2022-08-10T21:21:09.484Z,70.57
2022-08-10T21:26:18.716Z,71.07
2022-08-10T21:31:37.517Z,71.26
2022-08-10T21:36:47.745Z,71.46
2022-08-10T21:42:23.716Z,72.73
2022-08-10T21:48:16.408Z,72.16
2022-08-10T21:53:46.604Z,72.58
2022-08-10T21:59:12.849Z,76.98
2022-08-10T22:04:36.142Z,79.91
2022-08-10T22:10:03.887Z,78.08
2022-08-10T22:16:03.702Z,78.68
2022-08-10T22:21:26.956Z,77.83
2022-08-10T22:27:06.072Z,78.09
2022-08-10T22:32:42.134Z,78.40
2022-08-10T22:38:14.055Z,84.18
2022-08-10T22:43:44.963Z,82.18
2022-08-10T22:49:01.259Z,85.82
2022-08-10T22:54:30.491Z,82.70
2022-08-10T22:59:36.530Z,83.37
2022-08-10T23:04:45.682Z,84.26
2022-08-10T23:10:09.271Z,85.29
2022-08-10T23:15:41.452Z,84.72
2022-08-10T23:20:47.025Z,85.61
2022-08-10T23:25:57.463Z,86.36
2022-08-10T23:31:04.630Z,86.37
2022-08-10T23:36:34.691Z,88.88
2022-08-10T23:41:38.483Z,88.65
2022-08-10T23:46:44.894Z,89.01
2022-08-10T23:51:55.444Z,89.02
2022-08-10T23:57:02.681Z,89.93
